Time;durP1;ratioP1;P1;durP2;ratioP2;P2;SDS_P1;SDS_P2;PMS_P1;PMS_P2;Temp;Humidity;BMP_temperature;BMP_pressure;BME280_temperature;BME280_humidity;BME280_pressure;Samples;Min_cycle;Max_cycle;Signal;HPM_P1;HPM_P2
2022/04/17 00:02:12;;;;;;;2.00;1.90;;;;;;;12.09;54.83;94287.63;2622909;39;20251;-83
2022/04/17 00:04:41;;;;;;;2.43;2.17;;;;;;;12.38;54.52;94300.28;2621819;54;20188;-83
2022/04/17 00:07:10;;;;;;;1.67;1.57;;;;;;;11.98;54.65;94249.81;2621603;54;20152;-82
2022/04/17 00:09:39;;;;;;;2.50;1.83;;;;;;;12.22;54.89;94294.28;2620836;47;20163;-83
2022/04/17 00:12:11;;;;;;;2.33;1.73;;;;;;;12.44;54.76;94286.19;2621331;54;20154;-82
2022/04/17 00:14:47;;;;;;;2.23;2.07;;;;;;;12.48;54.37;94283.44;2621568;54;20161;-82
2022/04/17 00:17:16;;;;;;;1.60;1.50;;;;;;;12.12;55.15;94282.72;2622357;54;20187;-82
2022/04/17 00:19:46;;;;;;;1.60;1.57;;;;;;;12.26;55.06;94294.38;2622406;47;20180;-82
2022/04/17 00:22:17;;;;;;;2.70;2.50;;;;;;;12.29;54.97;94285.22;2623307;47;20165;-83
2022/04/17 00:24:46;;;;;;;3.30;2.37;;;;;;;12.36;55.24;94288.88;2622781;54;20152;-82
2022/04/17 00:27:18;;;;;;;2.50;2.40;;;;;;;12.17;54.84;94235.97;2622585;47;20177;-82
2022/04/17 00:29:47;;;;;;;2.63;1.37;;;;;;;11.61;55.86;94207.88;2621414;54;20673;-83
2022/04/17 00:32:16;;;;;;;2.17;2.07;;;;;;;12.24;55.85;94271.59;2621705;46;20156;-83
2022/04/17 00:34:55;;;;;;;2.20;2.10;;;;;;;12.35;55.89;94247.69;2621982;54;20164;-81
2022/04/17 00:37:24;;;;;;;2.33;2.20;;;;;;;11.98;56.35;94240.56;2622401;54;20152;-81
2022/04/17 00:39:53;;;;;;;2.20;2.10;;;;;;;12.06;57.62;94263.44;2621766;54;20177;-81
2022/04/17 00:42:26;;;;;;;1.60;1.53;;;;;;;12.14;56.86;94277.09;2622847;54;20160;-82
2022/04/17 00:44:55;;;;;;;1.07;1.07;;;;;;;11.12;59.64;94246.47;2622762;54;20165;-81
2022/04/17 00:47:24;;;;;;;2.27;1.70;;;;;;;11.27;59.71;94270.19;2622148;54;20248;-83
2022/04/17 00:49:56;;;;;;;2.67;2.57;;;;;;;11.44;58.79;94263.50;2620699;47;20735;-82
2022/04/17 00:52:31;;;;;;;2.13;2.03;;;;;;;11.57;58.43;94253.16;2621936;47;20607;-81
2022/04/17 00:55:04;;;;;;;2.67;2.47;;;;;;;11.30;58.16;94218.53;2621901;54;20172;-81
2022/04/17 00:57:41;;;;;;;2.00;1.80;;;;;;;11.58;58.06;94254.59;2622138;54;20153;-80
2022/04/17 01:00:15;;;;;;;0.90;0.90;;;;;;;11.28;57.75;94263.84;2622207;47;20207;-81
2022/04/17 01:02:47;;;;;;;1.63;1.60;;;;;;;11.72;56.87;94257.75;2622349;54;20160;-83
2022/04/17 01:05:18;;;;;;;1.80;1.70;;;;;;;11.49;57.08;94248.00;2622603;54;20153;-81
2022/04/17 01:07:47;;;;;;;1.43;1.33;;;;;;;11.53;56.77;94250.22;2622789;54;20181;-82
2022/04/17 01:10:16;;;;;;;3.73;1.47;;;;;;;11.68;56.46;94244.19;2621410;54;21386;-82
2022/04/17 01:12:58;;;;;;;2.07;1.97;;;;;;;11.49;56.89;94241.63;2619502;54;20153;-82
2022/04/17 01:15:27;;;;;;;2.00;1.90;;;;;;;11.75;56.42;94228.75;2619547;46;20159;-82
2022/04/17 01:17:57;;;;;;;2.53;2.30;;;;;;;11.52;56.79;94246.66;2616287;47;20165;-83
2022/04/17 01:20:29;;;;;;;1.00;1.00;;;;;;;11.02;56.81;94217.91;2617107;54;20160;-83
2022/04/17 01:28:32;;;;;;;2.00;1.70;;;;;;;11.15;57.33;94244.41;2615994;47;20169;-83
2022/04/17 01:31:01;;;;;;;1.50;1.40;;;;;;;10.70;57.92;94215.00;2616300;47;20168;-83
2022/04/17 01:33:33;;;;;;;1.27;1.27;;;;;;;11.02;58.10;94240.56;2616251;54;20169;-84
2022/04/17 01:36:02;;;;;;;2.87;1.90;;;;;;;11.02;57.55;94195.94;2617145;54;20179;-84
2022/04/17 01:38:34;;;;;;;5.63;1.90;;;;;;;11.66;55.91;94237.75;2617074;47;20161;-83
2022/04/17 01:41:03;;;;;;;1.20;1.20;;;;;;;11.47;56.65;94242.31;2616907;54;20161;-82
2022/04/17 01:43:32;;;;;;;1.73;1.63;;;;;;;11.63;56.13;94231.31;2616753;47;20181;-83
2022/04/17 01:46:06;;;;;;;2.47;1.83;;;;;;;11.82;55.95;94232.44;2616937;39;20549;-83
2022/04/17 01:48:37;;;;;;;1.83;1.73;;;;;;;11.39;57.03;94216.59;2616686;39;20577;-81
2022/04/17 01:51:06;;;;;;;2.03;1.90;;;;;;;11.17;57.29;94197.00;2617297;39;20529;-81
2022/04/17 01:53:38;;;;;;;1.70;1.60;;;;;;;11.11;57.51;94222.34;2616603;39;20591;-82
2022/04/17 01:56:07;;;;;;;2.13;2.03;;;;;;;11.29;57.44;94202.22;2616557;54;20176;-82
2022/04/17 01:58:37;;;;;;;2.47;2.27;;;;;;;12.03;56.33;94237.13;2617556;47;20223;-81
2022/04/17 02:01:06;;;;;;;2.57;2.37;;;;;;;12.15;55.60;94222.47;2618802;47;20721;-83
2022/04/17 02:03:35;;;;;;;2.20;2.07;;;;;;;12.24;55.29;94231.84;2616696;47;20192;-82
2022/04/17 02:06:04;;;;;;;1.67;1.57;;;;;;;11.80;55.76;94235.25;2616754;54;20165;-81
2022/04/17 02:08:33;;;;;;;2.20;2.10;;;;;;;11.33;57.51;94231.38;2616037;47;20161;-82
2022/04/17 02:11:05;;;;;;;2.10;1.90;;;;;;;11.26;57.73;94234.72;2621085;46;20209;-82
2022/04/17 02:13:37;;;;;;;1.47;1.47;;;;;;;11.21;57.87;94227.53;2623235;47;20165;-83
2022/04/17 02:16:05;;;;;;;1.27;1.27;;;;;;;11.23;57.44;94205.63;2622097;47;20161;-83
2022/04/17 02:18:34;;;;;;;7.27;2.13;;;;;;;11.45;57.53;94208.25;2615121;47;20703;-83
2022/04/17 02:21:03;;;;;;;2.00;1.90;;;;;;;11.48;57.59;94206.19;2615788;54;20161;-83
2022/04/17 02:23:32;;;;;;;1.83;1.73;;;;;;;11.60;57.17;94207.16;2615942;46;20583;-83
2022/04/17 02:26:01;;;;;;;1.50;1.50;;;;;;;11.29;58.25;94200.09;2616420;47;20176;-84
2022/04/17 02:28:35;;;;;;;1.67;1.53;;;;;;;11.24;58.44;94201.38;2616686;54;20160;-82
2022/04/17 02:31:04;;;;;;;1.57;1.50;;;;;;;11.39;58.94;94208.09;2617950;46;20172;-82
2022/04/17 02:33:33;;;;;;;2.10;1.93;;;;;;;11.51;58.24;94199.13;2616562;54;20705;-82
2022/04/17 02:36:03;;;;;;;3.27;2.50;;;;;;;11.78;57.66;94192.63;2619613;54;20156;-83
2022/04/17 02:38:35;;;;;;;3.20;1.77;;;;;;;11.92;57.35;94200.72;2617275;47;20673;-83
2022/04/17 02:41:04;;;;;;;1.97;1.87;;;;;;;12.11;56.63;94182.66;2617355;54;20145;-83
2022/04/17 02:43:36;;;;;;;2.60;2.13;;;;;;;12.14;56.68;94181.28;2618803;54;20161;-84
2022/04/17 02:46:05;;;;;;;1.73;1.63;;;;;;;11.66;58.01;94193.09;2621719;47;20163;-84
2022/04/17 02:48:32;;;;;;;1.63;1.53;;;;;;;11.56;58.44;94198.56;2620742;47;20260;-83
2022/04/17 02:51:05;;;;;;;1.57;1.50;;;;;;;11.44;59.37;94206.81;2617536;54;20145;-83
2022/04/17 02:53:34;;;;;;;1.93;1.87;;;;;;;11.46;58.71;94206.84;2619476;54;20152;-83
2022/04/17 02:56:03;;;;;;;1.73;1.63;;;;;;;10.77;60.15;94168.44;2616800;47;20248;-83
2022/04/17 02:58:32;;;;;;;1.63;1.63;;;;;;;10.61;61.08;94182.22;2616369;47;20247;-82
2022/04/17 03:06:31;;;;;;;2.57;1.97;;;;;;;10.78;60.79;94172.72;2616428;31;20722;-83
2022/04/17 03:09:03;;;;;;;2.93;2.27;;;;;;;10.98;60.20;94178.84;2615695;51;20168;-81
2022/04/17 03:11:31;;;;;;;2.53;2.43;;;;;;;11.24;59.93;94192.88;2616191;47;20160;-81
2022/04/17 03:14:00;;;;;;;1.90;1.80;;;;;;;11.17;59.95;94194.16;2616323;39;20560;-82
2022/04/17 03:16:32;;;;;;;2.40;1.83;;;;;;;11.04;60.52;94186.78;2616096;47;20173;-83
2022/04/17 03:19:00;;;;;;;2.10;2.00;;;;;;;11.31;59.88;94188.09;2616696;47;20164;-83
2022/04/17 03:21:30;;;;;;;1.80;1.70;;;;;;;11.01;60.16;94193.78;2616379;47;20157;-83
2022/04/17 03:24:00;;;;;;;1.23;1.23;;;;;;;11.21;60.35;94185.00;2619717;47;20149;-83
2022/04/17 03:26:28;;;;;;;1.93;1.83;;;;;;;11.42;59.57;94197.53;2615635;54;20167;-82
2022/04/17 03:28:59;;;;;;;2.33;2.17;;;;;;;11.49;59.40;94196.25;2615831;47;20176;-83
2022/04/17 03:31:36;;;;;;;1.00;1.00;;;;;;;11.42;59.82;94200.34;2616369;54;20160;-82
2022/04/17 03:34:06;;;;;;;1.83;1.73;;;;;;;11.05;60.66;94191.06;2616039;54;20153;-83
2022/04/17 03:36:37;;;;;;;1.67;1.37;;;;;;;11.07;60.35;94202.41;2615826;47;20168;-83
2022/04/17 03:39:05;;;;;;;2.20;2.00;;;;;;;11.30;59.85;94201.53;2616085;54;20160;-83
2022/04/17 03:41:35;;;;;;;2.83;2.07;;;;;;;11.27;60.05;94200.03;2615601;54;20180;-82
2022/04/17 03:44:05;;;;;;;1.90;1.70;;;;;;;10.89;60.45;94170.84;2616224;47;20165;-82
2022/04/17 03:46:39;;;;;;;2.47;2.27;;;;;;;10.65;61.83;94204.97;2616958;54;20169;-82
2022/04/17 03:49:17;;;;;;;0.43;0.43;;;;;;;10.11;62.55;94181.63;2613251;47;20204;-82
2022/04/17 03:51:45;;;;;;;1.70;1.70;;;;;;;10.16;63.08;94174.66;2615915;54;20160;-82
2022/04/17 03:54:14;;;;;;;1.67;1.57;;;;;;;11.13;60.85;94202.56;2620829;47;20161;-83
2022/04/17 03:56:43;;;;;;;4.63;1.63;;;;;;;11.03;61.07;94197.38;2618622;54;20685;-82
2022/04/17 03:59:12;;;;;;;2.47;1.57;;;;;;;11.32;59.82;94173.22;2616414;47;20219;-83
2022/04/17 04:01:46;;;;;;;1.87;1.77;;;;;;;12.27;57.96;94216.31;2616050;47;20172;-82
2022/04/17 04:04:19;;;;;;;1.43;1.43;;;;;;;11.89;57.71;94146.03;2616860;39;20782;-82
2022/04/17 04:06:51;;;;;;;1.70;1.60;;;;;;;11.83;59.21;94199.84;2615772;54;20153;-81
2022/04/17 04:09:22;;;;;;;2.00;1.83;;;;;;;11.23;60.27;94154.59;2615455;54;20183;-81
2022/04/17 04:11:51;;;;;;;1.53;1.43;;;;;;;11.64;59.94;94201.53;2614998;46;20169;-82
2022/04/17 04:14:40;;;;;;;2.10;1.97;;;;;;;10.78;62.06;94157.84;2616396;54;20157;-85
2022/04/17 04:17:47;;;;;;;1.93;1.37;;;;;;;10.57;64.13;94202.63;2616977;54;20677;-83
2022/04/17 04:24:43;;;;;;;2.13;1.93;;;;;;;10.07;62.21;94057.03;2614267;47;20208;-83
2022/04/17 04:37:02;;;;;;;1.27;1.27;;;;;;;10.26;62.92;94107.75;2614908;47;20157;-84
2022/04/17 04:43:23;;;;;;;2.10;1.90;;;;;;;11.07;63.14;94182.56;2613442;47;20188;-83
2022/04/17 04:46:24;;;;;;;1.53;1.43;;;;;;;11.40;62.49;94198.19;2617080;47;20164;-81
2022/04/17 04:55:22;;;;;;;2.03;1.93;;;;;;;10.71;63.37;94114.47;2614131;47;20185;-81
2022/04/17 05:01:34;;;;;;;2.37;2.17;;;;;;;11.20;61.97;94121.97;2614228;47;20204;-81
2022/04/17 05:05:11;;;;;;;1.10;1.10;;;;;;;11.49;60.45;94111.19;2617232;54;20361;-84
2022/04/17 05:08:10;;;;;;;;;;;;;;;;;;;;;
2022/04/17 05:24:41;;;;;;;;;;;;;;;;;;;;;
2022/04/17 05:30:54;;;;;;;2.77;1.43;;;;;;;12.49;56.51;94111.63;2615544;39;20588;-83
2022/04/17 05:33:39;;;;;;;1.33;1.33;;;;;;;13.63;55.39;94187.97;2617068;47;20149;-81
2022/04/17 05:36:22;;;;;;;;;;;;;;;;;;;;;
2022/04/17 05:38:57;;;;;;;2.35;2.25;;;;;;;12.50;57.14;94078.97;2616141;47;20437;-81
2022/04/17 05:48:19;;;;;;;1.30;1.30;;;;;;;13.88;54.88;94198.25;2613775;46;20205;-83
2022/04/17 05:51:02;;;;;;;2.37;2.17;;;;;;;12.73;54.16;94029.59;2615191;47;20236;-82
2022/04/17 05:53:36;;;;;;;1.90;1.80;;;;;;;12.57;54.45;94017.31;2615377;54;20133;-83
2022/04/17 05:56:23;;;;;;;1.90;1.80;;;;;;;13.27;55.19;94108.53;2616425;54;20161;-83
2022/04/17 05:59:11;;;;;;;1.63;1.53;;;;;;;13.16;57.46;94189.41;2616270;54;20224;-82
2022/04/17 06:02:01;;;;;;;1.73;1.63;;;;;;;12.36;56.73;94053.91;2616323;47;20168;-82
2022/04/17 06:26:09;;;;;;;;;;;;;;;;;;;;;
2022/04/17 06:42:46;;;;;;;2.67;1.90;;;;;;;13.35;54.57;94079.50;2619917;46;20194;-80
2022/04/17 06:46:01;;;;;;;2.33;2.23;;;;;;;12.22;56.26;94001.84;2618076;47;21212;-81
2022/04/17 06:51:22;;;;;;;3.97;2.43;;;;;;;12.29;57.11;94046.72;2617023;46;20180;-80
2022/04/17 06:54:11;;;;;;;2.20;2.10;;;;;;;13.31;56.92;94181.81;2619178;38;20652;-82
2022/04/17 06:56:40;;;;;;;1.00;1.00;;;;;;;12.72;56.82;94138.25;2618447;54;20169;-82
2022/04/17 06:59:39;;;;;;;;;;;;;;;;;;;;;
2022/04/17 07:02:12;;;;;;;1.60;1.50;;;;;;;12.25;59.42;94060.13;2621001;54;20180;-81
2022/04/17 07:04:43;;;;;;;3.10;2.80;;;;;;;12.93;57.95;94148.53;2620503;46;20720;-81
2022/04/17 07:07:12;;;;;;;1.53;1.53;;;;;;;12.29;58.41;94100.66;2619678;54;20153;-83
2022/04/17 07:16:21;;;;;;;1.60;1.50;;;;;;;13.72;55.77;94183.09;2621488;54;20179;-84
2022/04/17 07:29:23;;;;;;;;;;;;;;;;;;;;;
2022/04/17 07:38:21;;;;;;;2.00;1.90;;;;;;;11.85;58.45;94003.41;2615740;46;20177;-83
2022/04/17 07:40:51;;;;;;;2.10;1.90;;;;;;;13.18;57.52;94124.06;2613762;47;20206;-81
2022/04/17 07:46:02;;;;;;;1.90;1.80;;;;;;;12.55;59.39;94114.56;2614720;47;20312;-83
2022/04/17 07:48:34;;;;;;;1.63;1.53;;;;;;;12.70;59.61;94192.22;2616134;54;20200;-83
2022/04/17 07:51:19;;;;;;;1.70;1.60;;;;;;;11.84;58.95;94018.97;2615270;47;20157;-85
2022/04/17 07:53:48;;;;;;;1.70;1.60;;;;;;;12.51;59.79;94157.09;2615461;54;20153;-84
2022/04/17 07:58:59;;;;;;;1.77;1.67;;;;;;;12.71;59.38;94099.91;2613326;47;20195;-84
2022/04/17 08:01:33;;;;;;;2.13;1.60;;;;;;;13.06;59.23;94175.03;2613576;47;20157;-83
2022/04/17 08:04:20;;;;;;;1.67;1.57;;;;;;;13.17;59.48;94170.94;2614485;54;20171;-83
2022/04/17 08:06:49;;;;;;;2.47;2.27;;;;;;;13.36;59.46;94175.50;2615198;39;20561;-83
2022/04/17 08:09:18;;;;;;;1.43;1.43;;;;;;;13.53;58.63;94168.59;2614977;47;20165;-82
2022/04/17 08:12:04;;;;;;;2.43;2.23;;;;;;;13.40;61.45;94171.97;2615337;54;20207;-85
2022/04/17 08:17:27;;;;;;;2.43;2.27;;;;;;;11.80;60.11;93968.56;2617935;39;20594;-84
2022/04/17 08:20:11;;;;;;;2.07;1.93;;;;;;;13.14;59.59;94166.59;2616139;54;20251;-83
2022/04/17 08:22:40;;;;;;;4.37;2.10;;;;;;;12.54;59.53;94118.81;2615274;47;20156;-82
2022/04/17 08:25:10;;;;;;;6.70;3.43;;;;;;;12.74;61.34;94153.22;2615780;47;20164;-83
2022/04/17 08:27:55;;;;;;;2.10;2.00;;;;;;;13.10;60.72;94126.75;2615817;54;20165;-85
2022/04/17 08:30:25;;;;;;;2.30;2.03;;;;;;;12.37;65.05;94165.38;2615712;54;20176;-86
2022/04/17 08:32:55;;;;;;;2.33;2.13;;;;;;;12.70;63.73;94167.38;2615675;54;20149;-82
2022/04/17 08:35:37;;;;;;;2.67;2.47;;;;;;;12.51;63.91;94137.22;2615156;47;20172;-84
2022/04/17 08:38:09;;;;;;;3.07;1.87;;;;;;;12.59;64.01;94113.91;2615250;47;20157;-83
2022/04/17 08:40:41;;;;;;;2.30;1.97;;;;;;;13.16;62.34;94150.34;2615546;54;20145;-83
2022/04/17 08:43:10;;;;;;;1.63;1.47;;;;;;;13.59;60.47;94165.13;2615561;47;20165;-82
2022/04/17 08:45:40;;;;;;;2.85;2.63;;;;;;;13.86;59.51;94163.34;2617142;54;20495;-82
2022/04/17 08:48:10;;;;;;;2.10;2.00;;;;;;;13.99;58.03;94164.91;2617142;54;20161;-83
2022/04/17 08:50:53;;;;;;;1.90;1.80;;;;;;;14.07;58.43;94147.94;2614287;54;20153;-84
2022/04/17 08:53:23;;;;;;;1.73;1.63;;;;;;;13.51;59.62;94157.22;2616267;54;20160;-84
2022/04/17 08:55:53;;;;;;;1.23;1.13;;;;;;;12.75;62.75;94153.94;2617144;54;20184;-84
2022/04/17 08:58:22;;;;;;;2.13;1.70;;;;;;;12.43;62.63;94149.16;2615301;54;20168;-85
2022/04/17 09:00:52;;;;;;;1.73;1.70;;;;;;;11.53;66.09;94114.09;2614445;54;20991;-84
2022/04/17 09:03:21;;;;;;;1.73;1.70;;;;;;;11.34;66.67;94110.88;2615831;31;20829;-84
2022/04/17 09:06:07;;;;;;;2.10;2.00;;;;;;;12.43;65.11;94159.81;2617109;54;20153;-83
2022/04/17 09:08:38;;;;;;;1.20;1.20;;;;;;;12.94;61.81;94100.94;2617553;54;20176;-83
2022/04/17 09:11:17;;;;;;;2.47;1.43;;;;;;;13.55;60.01;94135.91;2618010;54;20203;-84
2022/04/17 09:13:49;;;;;;;1.17;1.10;;;;;;;12.41;63.80;94122.84;2617702;54;20179;-83
2022/04/17 09:16:42;;;;;;;1.90;1.80;;;;;;;11.56;64.48;94126.94;2621745;47;20156;-83
2022/04/17 09:19:31;;;;;;;1.53;1.30;;;;;;;10.00;68.93;94064.63;2620812;54;20164;-81
2022/04/17 09:24:44;;;;;;;1.50;1.50;;;;;;;8.62;75.93;94026.25;2616184;47;20195;-81
2022/04/17 09:27:13;;;;;;;1.13;1.13;;;;;;;8.93;74.80;94034.22;2618249;47;20161;-82
2022/04/17 09:30:05;;;;;;;1.40;1.40;;;;;;;9.84;76.01;94118.66;2617377;47;20161;-83
2022/04/17 09:32:34;;;;;;;1.70;1.47;;;;;;;9.72;73.21;94015.84;2616435;54;20161;-80
2022/04/17 09:35:03;;;;;;;1.37;1.13;;;;;;;10.05;75.40;94114.28;2615941;54;20160;-82
2022/04/17 09:37:42;;;;;;;2.43;2.30;;;;;;;10.21;73.90;94126.03;2616126;54;20434;-81
2022/04/17 09:40:23;;;;;;;2.60;2.50;;;;;;;10.76;72.47;94106.81;2615792;47;20187;-81
2022/04/17 09:42:59;;;;;;;1.90;1.40;;;;;;;11.07;74.70;94117.41;2615998;47;20208;-81
2022/04/17 09:45:31;;;;;;;1.67;1.40;;;;;;;11.66;73.09;94104.44;2618155;54;20179;-82
2022/04/17 09:48:00;;;;;;;1.50;1.50;;;;;;;12.86;66.33;94095.13;2618441;54;20215;-80
2022/04/17 09:50:36;;;;;;;1.47;1.37;;;;;;;11.78;67.84;94101.84;2613332;54;20157;-80
2022/04/17 09:53:34;;;;;;;1.93;1.83;;;;;;;11.58;71.48;94076.66;2613971;47;20842;-80
2022/04/17 09:56:08;;;;;;;2.30;1.40;;;;;;;12.34;67.10;94101.41;2616764;54;21013;-80
2022/04/17 09:58:41;;;;;;;1.83;1.73;;;;;;;12.08;66.53;94056.28;2618791;47;20172;-81
2022/04/17 10:01:15;;;;;;;2.60;2.40;;;;;;;11.60;70.48;94067.47;2619063;54;20464;-79
2022/04/17 10:03:54;;;;;;;1.80;1.70;;;;;;;11.02;67.92;94096.06;2614958;54;20775;-80
2022/04/17 10:06:59;;;;;;;1.73;1.63;;;;;;;9.42;74.47;94103.41;2615379;47;20271;-79
2022/04/17 10:20:47;;;;;;;;;;;;;;;;;;;;;
2022/04/17 10:24:08;;;;;;;1.17;1.17;;;;;;;8.42;78.34;93947.38;2612902;54;20259;-73
2022/04/17 10:33:18;;;;;;;2.07;1.97;;;;;;;8.74;82.01;94064.06;2615730;54;20252;-80
2022/04/17 10:36:12;;;;;;;1.43;1.43;;;;;;;8.62;83.19;94085.53;2614985;47;20215;-80
2022/04/17 11:17:07;;;;;;;;;;;;;;;;;;;;;
2022/04/17 12:08:06;;;;;;;6.93;2.90;;;;;;;11.25;67.11;93970.41;2614541;46;20184;-82
2022/04/17 12:23:34;;;;;;;;;;;;;;;;;;;;;
2022/04/17 12:29:53;;;;;;;;;;;;;;;;;;;;;
2022/04/17 12:32:49;;;;;;;1.40;1.40;;;;;;;11.78;65.06;93987.66;2617325;47;20157;-81
2022/04/17 12:45:26;;;;;;;2.30;1.87;;;;;;;10.84;68.50;94047.47;2616266;46;20775;-82
2022/04/17 12:48:53;;;;;;;3.58;2.65;;;;;;;11.17;68.22;94038.28;2614769;47;20517;-81
2022/04/17 12:55:37;;;;;;;;;;;;;;;;;;;;;
2022/04/17 12:58:33;;;;;;;2.20;1.77;;;;;;;11.52;65.27;93871.63;2617530;54;20168;-82
2022/04/17 13:05:05;;;;;;;1.93;1.50;;;;;;;12.91;62.06;93965.91;2614688;46;20212;-82
2022/04/17 13:11:46;;;;;;;1.73;1.63;;;;;;;13.34;61.70;93967.84;2615489;54;21030;-82
2022/04/17 13:17:26;;;;;;;1.77;1.27;;;;;;;11.80;61.85;94036.63;2614955;47;20189;-86
2022/04/17 13:20:06;;;;;;;2.17;2.07;;;;;;;10.82;63.95;93922.81;2615677;47;20172;-81
2022/04/17 13:28:56;;;;;;;1.13;1.03;;;;;;;9.66;64.04;93838.31;2616143;54;20188;-82
2022/04/17 13:32:03;;;;;;;1.53;1.43;;;;;;;9.24;67.37;93929.16;2614433;54;20156;-82
2022/04/17 13:38:32;;;;;;;2.23;2.20;;;;;;;9.58;72.23;94013.38;2613408;47;20165;-82
2022/04/17 13:42:03;;;;;;;;;;;;;;;;;;;;;
2022/04/17 13:55:00;;;;;;;2.67;1.30;;;;;;;9.06;74.20;94019.06;2613602;47;20288;-80
2022/04/17 14:12:49;;;;;;;1.43;1.33;;;;;;;7.69;70.97;93827.50;2613909;47;20161;-82
2022/04/17 14:15:43;;;;;;;1.13;1.13;;;;;;;7.61;69.91;93823.72;2614196;54;20220;-83
2022/04/17 14:19:07;;;;;;;;;;;;;;;;;;;;;
2022/04/17 14:21:50;;;;;;;1.60;1.60;;;;;;;8.82;71.11;93968.28;2619207;47;20260;-83
2022/04/17 14:27:24;;;;;;;1.83;1.27;;;;;;;8.64;70.78;93896.47;2615395;47;20176;-82
2022/04/17 14:33:07;;;;;;;1.83;1.73;;;;;;;8.40;70.18;93826.00;2621450;47;20175;-82
2022/04/17 14:43:38;;;;;;;1.60;1.60;;;;;;;10.89;67.00;94009.34;2613455;47;20201;-81
2022/04/17 15:07:34;;;;;;;;;;;;;;;;;;;;;
